Latest Weather Observations for Gannett Cay

IDQ60801

Issued at 6:05 pm EST Wednesday 23 April 2014 (issued every 30 minutes, with the page automatically refreshed every 10 minutes)

About weather observations | Map of weather stations | Latest weather observations for QLD | Other Formats
Station Details ID: 200831 Name: GANNET CAY Lat: -21.98 Lon: 152.47 Height: 2.3 m
Data from the previous 72 hours. | See also: Recent months for locations in Queensland
Date/Time
EST
Temp
°C
App
Temp
°C
Dew
Point
Rel
Hum
%
Delta-T
°C
Wind Press
QNH
hPa
Press
MSL
hPa
Rain
since 9 am
mm
Dir
 
Spd
km/h
Gust
km/h
Spd
kts
Gust
kts
23/06:00pm 22.1 - - - - ESE 26 33 14 18 1014.7 - -
23/05:30pm 22.6 - - - - E 28 35 15 19 1014.3 - -
23/05:26pm 22.4 - - - - E 26 - 14 - - 1014.3 -
23/05:00pm 22.8 - - - - E 7 32 4 17 1013.9 - -
23/04:30pm 23.2 - - - - E 35 41 19 22 1013.4 - -
23/04:26pm 23.3 - - - - E 33 - 18 - - 1013.5 -
23/04:00pm 23.0 - - - - ENE 46 54 25 29 1012.7 - -
23/03:30pm 23.1 - - - - ENE 43 46 23 25 1012.8 - -
23/03:26pm 22.6 - - - - ENE 43 - 23 - - 1012.8 -
23/03:00pm 21.1 - - - - ENE 43 48 23 26 1012.9 - -
23/02:30pm 23.9 - - - - ENE 41 50 22 27 1013.0 - -
23/02:26pm 24.3 - - - - ENE 39 - 21 - - 1013.0 -
23/02:00pm 25.5 - - - - E 33 41 18 22 1013.0 - -
23/01:30pm 25.9 - - - - E 32 39 17 21 1013.3 - -
23/01:26pm 26.2 - - - - E 33 - 18 - - 1013.5 -
23/01:00pm 26.3 - - - - E 33 37 18 20 1013.8 - -
23/12:30pm 26.2 - - - - E 33 37 18 20 1014.3 - -
23/12:26pm 26.3 - - - - E 33 - 18 - - 1014.5 -
23/12:00pm 26.3 - - - - E 35 41 19 22 1014.5 - -
23/11:30am 26.4 - - - - E 37 43 20 23 1014.8 - -
23/11:26am 26.4 - - - - E 37 - 20 - - 1014.8 -
23/11:00am 26.4 - - - - E 37 43 20 23 1015.2 - -
23/10:30am 26.3 - - - - E 37 43 20 23 1015.7 - -
23/10:26am 26.4 - - - - E 37 - 20 - - 1015.9 -
23/10:00am 26.3 - - - - E 39 43 21 23 1015.9 - -
23/09:30am 26.2 - - - - E 41 46 22 25 1015.8 - -
23/09:26am 26.1 - - - - E 41 - 22 - - 1015.7 -
23/09:00am 26.0 - - - - E 39 46 21 25 1015.2 - -
23/08:30am 26.1 - - - - E 41 48 22 26 1015.4 - -
23/08:26am 26.0 - - - - E 39 - 21 - - 1015.4 -
23/08:00am 25.8 - - - - E 37 43 20 23 1015.9 - -
23/07:30am 25.8 - - - - E 35 39 19 21 1015.9 - -
23/07:26am 25.7 - - - - E 35 - 19 - - 1016.0 -
23/07:00am 25.2 - - - - E 30 33 16 18 1015.9 - -
23/06:30am 25.2 - - - - E 32 35 17 19 1015.7 - -
23/06:26am 25.1 - - - - E 33 - 18 - - 1015.8 -
23/06:00am 25.1 - - - - E 35 41 19 22 1015.3 - -
23/05:30am 24.9 - - - - E 37 43 20 23 1015.2 - -
23/05:26am 24.9 - - - - ENE 39 - 21 - - 1015.3 -
23/05:00am 25.7 - - - - E 33 39 18 21 1014.8 - -
23/04:30am 25.3 - - - - E 33 39 18 21 1015.0 - -
23/04:26am 25.2 - - - - E 35 - 19 - - 1015.0 -
23/04:00am 25.1 - - - - E 32 37 17 20 1014.4 - -
23/03:30am 24.7 - - - - E 35 39 19 21 1014.5 - -
23/03:26am 24.8 - - - - E 35 - 19 - - 1014.6 -
23/03:00am 24.7 - - - - E 35 41 19 22 1015.3 - -
23/02:30am 24.7 - - - - E 33 41 18 22 1015.5 - -
23/02:26am 24.6 - - - - E 33 - 18 - - 1015.6 -
23/02:00am 24.5 - - - - E 37 43 20 23 1015.6 - -
23/01:30am 24.5 - - - - ENE 35 46 19 25 1015.5 - -
23/01:26am 24.9 - - - - E 33 - 18 - - 1015.6 -
23/01:00am 25.5 - - - - E 35 39 19 21 1015.8 - -
23/12:30am 25.6 - - - - E 37 43 20 23 1015.9 - -
23/12:26am 25.6 - - - - E 35 - 19 - - 1016.1 -
23/12:00am 25.6 - - - - E 35 41 19 22 1016.2 - -
 
Date/Time
EST
Temp
°C
App
Temp
°C
Dew
Point
Rel
Hum
%
Delta-T
°C
Wind Press
QNH
hPa
Press
MSL
hPa
Rain
since 9 am
mm
Dir
 
Spd
km/h
Gust
km/h
Spd
kts
Gust
kts
22/11:30pm 25.6 - - - - E 35 39 19 21 1016.3 - -
22/11:26pm 25.5 - - - - E 35 - 19 - - 1016.5 -
22/11:00pm 25.6 - - - - E 33 37 18 20 1016.8 - -
22/10:30pm 25.7 - - - - E 32 37 17 20 1016.7 - -
22/10:26pm 25.6 - - - - E 33 - 18 - - 1016.8 -
22/10:00pm 25.6 - - - - E 37 41 20 22 1016.4 - -
22/09:30pm 25.6 - - - - E 37 41 20 22 1016.6 - -
22/09:26pm 25.5 - - - - E 35 - 19 - - 1016.7 -
22/09:00pm 25.4 - - - - ESE 33 39 18 21 1016.6 - -
22/08:30pm 25.2 - - - - E 37 43 20 23 1016.7 - -
22/08:26pm 25.4 - - - - E 39 - 21 - - 1016.8 -
22/08:00pm 25.4 - - - - ESE 35 43 19 23 1016.7 - -
22/07:30pm 25.7 - - - - ESE 33 39 18 21 1016.4 - -
22/07:26pm 25.6 - - - - ESE 33 - 18 - - 1016.6 -
22/07:00pm 25.6 - - - - E 33 39 18 21 1016.3 - -
22/06:30pm 25.6 - - - - ESE 32 35 17 19 1016.4 - -
22/06:26pm 25.7 - - - - ESE 33 - 18 - - 1016.5 -
22/06:00pm 25.2 - - - - ESE 33 39 18 21 1016.4 - -
22/05:30pm 25.2 - - - - SE 32 35 17 19 1016.2 - -
22/05:26pm 25.1 - - - - SE 32 - 17 - - 1016.3 -
22/05:00pm 25.3 - - - - ESE 35 37 19 20 1015.9 - -
22/04:30pm 25.5 - - - - ESE 32 35 17 19 1016.0 - -
22/04:26pm 25.5 - - - - ESE 32 - 17 - - 1016.0 -
22/04:00pm 25.6 - - - - ESE 32 37 17 20 1015.9 - -
22/03:30pm 25.6 - - - - ESE 30 35 16 19 1015.9 - -
22/03:26pm 25.7 - - - - ESE 30 - 16 - - 1015.9 -
22/03:00pm 25.7 - - - - ESE 32 35 17 19 1015.9 - -
22/02:30pm 25.8 - - - - ESE 32 37 17 20 1015.6 - -
22/02:26pm 25.9 - - - - ESE 30 - 16 - - 1015.8 -
22/02:00pm 25.8 - - - - ESE 30 35 16 19 1015.9 - -
22/01:30pm 25.9 - - - - ESE 32 35 17 19 1016.1 - -
22/01:26pm 25.9 - - - - ESE 30 - 16 - - 1016.1 -
22/01:00pm 25.9 - - - - ESE 32 35 17 19 1016.2 - -
22/12:30pm 25.8 - - - - ESE 32 35 17 19 1016.6 - -
22/12:26pm 25.6 - - - - ESE 32 - 17 - - 1016.7 -
22/12:00pm 25.7 - - - - ESE 32 35 17 19 1017.1 - -
22/11:30am 25.8 - - - - ESE 32 35 17 19 1017.5 - -
22/11:26am 25.7 - - - - ESE 32 - 17 - - 1017.7 -
22/11:00am 25.8 - - - - ESE 30 33 16 18 1018.0 - -
22/10:30am 25.7 - - - - ESE 30 35 16 19 1018.4 - -
22/10:26am 25.6 - - - - ESE 30 - 16 - - 1018.5 -
22/10:00am 25.8 - - - - E 30 35 16 19 1018.7 - -
22/09:30am 25.6 - - - - E 30 35 16 19 1018.8 - -
22/09:26am 25.6 - - - - ESE 28 - 15 - - 1018.8 -
22/09:00am 25.5 - - - - ESE 30 35 16 19 1018.7 - -
22/08:30am 25.4 - - - - E 32 35 17 19 1018.5 - -
22/08:26am 25.5 - - - - E 32 - 17 - - 1018.6 -
22/08:00am 25.4 - - - - ESE 30 33 16 18 1018.3 - -
22/07:30am 25.1 - - - - ESE 30 35 16 19 1018.1 - -
22/07:26am 25.1 - - - - ESE 30 - 16 - - 1018.2 -
22/07:00am 25.0 - - - - E 30 35 16 19 1018.0 - -
22/06:30am 25.1 - - - - ESE 30 33 16 18 1017.9 - -
22/06:26am 24.9 - - - - ESE 28 - 15 - - 1017.9 -
22/06:00am 24.8 - - - - ESE 26 32 14 17 1017.7 - -
22/05:30am 24.9 - - - - E 24 30 13 16 1017.5 - -
22/05:26am 24.9 - - - - E 24 - 13 - - 1017.6 -
22/05:00am 24.8 - - - - E 24 30 13 16 1017.2 - -
22/04:30am 24.8 - - - - E 26 30 14 16 1016.8 - -
22/04:26am 24.9 - - - - E 26 - 14 - - 1016.9 -
22/04:00am 24.8 - - - - E 24 30 13 16 1016.7 - -
22/03:30am 24.8 - - - - E 22 28 12 15 1016.9 - -
22/03:26am 24.8 - - - - E 22 - 12 - - 1016.9 -
22/03:00am 24.8 - - - - E 24 32 13 17 1016.9 - -
22/02:30am 24.9 - - - - E 24 28 13 15 1016.9 - -
22/02:26am 24.8 - - - - E 24 - 13 - - 1017.1 -
22/02:00am 24.8 - - - - ENE 30 33 16 18 1017.3 - -
22/01:30am 24.8 - - - - E 32 39 17 21 1017.4 - -
22/01:26am 24.9 - - - - E 32 - 17 - - 1017.6 -
22/01:00am 24.9 - - - - E 32 39 17 21 1017.9 - -
22/12:30am 25.0 - - - - E 33 39 18 21 1017.9 - -
22/12:26am 24.9 - - - - E 33 - 18 - - 1018.1 -
22/12:00am 25.0 - - - - E 32 39 17 21 1018.0 - -
 
Date/Time
EST
Temp
°C
App
Temp
°C
Dew
Point
Rel
Hum
%
Delta-T
°C
Wind Press
QNH
hPa
Press
MSL
hPa
Rain
since 9 am
mm
Dir
 
Spd
km/h
Gust
km/h
Spd
kts
Gust
kts
21/11:30pm 25.0 - - - - E 33 39 18 21 1018.2 - -
21/11:26pm 25.1 - - - - E 33 - 18 - - 1018.3 -
21/11:00pm 25.1 - - - - E 33 39 18 21 1018.2 - -
21/10:30pm 25.1 - - - - E 32 35 17 19 1018.4 - -
21/10:26pm 25.2 - - - - E 32 - 17 - - 1018.5 -
21/10:00pm 25.2 - - - - E 30 35 16 19 1018.6 - -
21/09:30pm 25.2 - - - - E 30 35 16 19 1018.5 - -
21/09:26pm 25.2 - - - - E 30 - 16 - - 1018.6 -
21/09:00pm 25.3 - - - - E 28 32 15 17 1018.5 - -
21/08:30pm 25.1 - - - - ESE 26 32 14 17 1018.6 - -
21/08:26pm 25.0 - - - - SE 24 - 13 - - 1018.7 -
21/08:00pm 25.1 - - - - ESE 26 30 14 16 1018.4 - -
21/07:30pm 25.1 - - - - ESE 30 35 16 19 1018.3 - -
21/07:26pm 25.1 - - - - ESE 28 - 15 - - 1018.4 -
21/07:00pm 25.1 - - - - ESE 28 35 15 19 1018.0 - -
21/06:30pm 25.2 - - - - ESE 30 33 16 18 1017.7 - -
21/06:26pm 25.2 - - - - ESE 28 - 15 - - 1017.8 -
21/06:00pm 25.2 - - - - ESE 28 33 15 18 1017.6 - -
21/05:30pm 25.3 - - - - ESE 30 35 16 19 1017.4 - -
21/05:26pm 25.2 - - - - ESE 30 - 16 - - 1017.4 -
21/05:00pm 25.4 - - - - ESE 30 35 16 19 1016.9 - -
21/04:30pm 25.5 - - - - ESE 32 35 17 19 1016.8 - -
21/04:26pm 25.4 - - - - ESE 30 - 16 - - 1016.9 -
21/04:00pm 25.4 - - - - ESE 32 39 17 21 1016.4 - -
21/03:30pm 25.4 - - - - ESE 33 41 18 22 1016.4 - -
21/03:26pm 25.5 - - - - ESE 32 - 17 - - 1016.4 -
21/03:00pm 25.5 - - - - ESE 28 35 15 19 1016.4 - -
21/02:30pm 25.7 - - - - ESE 28 33 15 18 1016.3 - -
21/02:26pm 25.9 - - - - ESE 30 - 16 - - 1016.4 -
21/02:00pm 25.8 - - - - ESE 30 32 16 17 1016.4 - -
21/01:30pm 25.9 - - - - ESE 26 32 14 17 1016.7 - -
21/01:26pm 25.6 - - - - E 26 - 14 - - 1016.9 -
21/01:00pm 26.0 - - - - ESE 26 30 14 16 1017.0 - -
21/12:30pm 25.6 - - - - ESE 26 32 14 17 1017.2 - -
21/12:26pm 25.6 - - - - E 26 - 14 - - 1017.3 -
21/12:00pm 25.5 - - - - E 26 30 14 16 1017.5 - -
21/11:30am 25.4 - - - - ESE 32 35 17 19 1017.9 - -
21/11:26am 25.3 - - - - ESE 30 - 16 - - 1018.1 -
21/11:00am 25.6 - - - - ESE 30 35 16 19 1018.3 - -
21/10:30am 25.4 - - - - E 28 33 15 18 1018.5 - -
21/10:26am 25.6 - - - - E 28 - 15 - - 1018.6 -
21/10:00am 25.6 - - - - E 26 32 14 17 1018.7 - -
21/09:30am 25.9 - - - - E 28 32 15 17 1018.7 - -
21/09:26am 25.7 - - - - E 28 - 15 - - 1018.8 -
21/09:00am 25.5 - - - - E 26 32 14 17 1018.8 - -
21/08:30am 25.4 - - - - E 20 28 11 15 1018.7 - -
21/08:26am 25.3 - - - - E 20 - 11 - - 1018.8 -
21/08:00am 25.6 - - - - E 24 26 13 14 1018.5 - -
21/07:30am 25.2 - - - - E 24 28 13 15 1018.2 - -
21/07:26am 25.1 - - - - E 24 - 13 - - 1018.3 -
21/07:00am 25.1 - - - - E 22 28 12 15 1017.9 - -
21/06:30am 25.0 - - - - ESE 26 30 14 16 1017.6 - -
21/06:26am 25.0 - - - - ESE 26 - 14 - - 1017.6 -
21/06:00am 25.0 - - - - ESE 24 28 13 15 1017.3 - -
21/05:30am 25.0 - - - - E 24 30 13 16 1017.1 - -
21/05:26am 25.1 - - - - E 22 - 12 - - 1017.1 -
21/05:00am 25.0 - - - - E 24 28 13 15 1016.9 - -
21/04:30am 25.0 - - - - E 24 28 13 15 1016.6 - -
21/04:26am 24.9 - - - - E 22 - 12 - - 1016.7 -
21/04:00am 25.0 - - - - E 22 28 12 15 1016.5 - -
21/03:30am 24.9 - - - - E 22 28 12 15 1016.4 - -
21/03:26am 24.9 - - - - E 22 - 12 - - 1016.5 -
21/03:00am 24.9 - - - - E 22 26 12 14 1016.5 - -
21/02:30am 24.9 - - - - E 24 30 13 16 1016.6 - -
21/02:26am 25.0 - - - - E 24 - 13 - - 1016.7 -
21/02:00am 25.0 - - - - E 24 30 13 16 1016.6 - -
21/01:30am 25.0 - - - - E 24 30 13 16 1016.8 - -
21/01:26am 25.0 - - - - E 24 - 13 - - 1016.9 -
21/01:00am 25.0 - - - - E 24 28 13 15 1017.0 - -
21/12:30am 25.0 - - - - E 24 28 13 15 1017.2 - -
21/12:26am 25.1 - - - - E 24 - 13 - - 1017.3 -
21/12:00am 25.0 - - - - E 26 32 14 17 1017.4 - -
 
Date/Time
EST
Temp
°C
App
Temp
°C
Dew
Point
Rel
Hum
%
Delta-T
°C
Wind Press
QNH
hPa
Press
MSL
hPa
Rain
since 9 am
mm
Dir
 
Spd
km/h
Gust
km/h
Spd
kts
Gust
kts
20/11:30pm 25.0 - - - - E 22 30 12 16 1017.5 - -
20/11:26pm 25.0 - - - - E 22 - 12 - - 1017.7 -
20/11:00pm 25.1 - - - - E 26 32 14 17 1017.7 - -
20/10:30pm 25.1 - - - - E 2 6 1 3 1017.7 - -
20/10:26pm 25.1 - - - - ESE 2 - 1 - - 1017.8 -
20/10:00pm 25.0 - - - - E 2 6 1 3 1017.7 - -
20/09:30pm 24.9 - - - - E 2 6 1 3 1018.0 - -
20/09:26pm 25.0 - - - - ESE 2 - 1 - - 1018.0 -
20/09:00pm 24.9 - - - - ESE 2 6 1 3 1017.9 - -
20/08:30pm 24.9 - - - - ESE 2 6 1 3 1017.9 - -
20/08:26pm 24.9 - - - - ESE 2 - 1 - - 1018.0 -
20/08:00pm 24.9 - - - - SE 2 6 1 3 1017.6 - -
20/07:30pm 25.0 - - - - ESE 2 6 1 3 1017.4 - -
20/07:26pm 25.0 - - - - ESE 2 - 1 - - 1017.4 -
20/07:00pm 24.9 - - - - ESE 2 6 1 3 1017.0 - -
20/06:30pm 25.0 - - - - ESE 24 28 13 15 1016.6 - -
20/06:26pm 25.0 - - - - ESE 24 - 13 - - 1016.6 -

Other Formats:

Comma delimited format used in spreadsheet applications
http://www.bom.gov.au/fwo/IDQ60801/IDQ60801.94379.axf

JavaScript Object Notation format (JSON) in row-major order
http://www.bom.gov.au/fwo/IDQ60801/IDQ60801.94379.json